WEATHER DATA

TODAY
Time Temp. Dewp. Hum. Wind dir Wind speed Wind gust Bar. 1h Prec. 24h Prec.
00:06 21.3 7.2 40 270 1.1 2.2 1020 0.0000 0.0000
00:16 21.3 7.2 40 251 1.1 3.3 1019.8 0.0000 0.0000
00:26 21.1 7 40 255 1.4 5 1019.8 0.0000 0.0000
00:36 21.1 7 40 257 0.8 2.2 1020 0.0000 0.0000
00:46 21.1 6.6 39 245 1.4 3.9 1019.9 0.0000 0.0000
00:56 21.2 6.7 39 248 1.4 4.2 1019.7 0.0000 0.0000
01:06 21.2 6.7 39 270 1.1 2.5 1019.9 0.0000 0.0000
01:16 21.2 7.4 41 338 1.1 2.8 1020 0.0000 0.0000
01:26 21.2 7.1 40 270 1.1 2.2 1019.7 0.0000 0.0000
01:37 21 6.5 39 270 0.8 2.2 1019.6 0.0000 0.0000
01:47 21 6.2 38 263 1.4 3.9 1019.6 0.0000 0.0000
01:56 21.1 6.2 38 252 1.1 3.1 1019.7 0.0000 0.0000
02:07 21.1 6.2 38 259 1.1 2.5 1019.6 0.0000 0.0000
02:17 21 6.5 39 270 0.8 1.9 1019.6 0.0000 0.0000
02:27 20.9 6.1 38 270 0.8 1.9 1019.7 0.0000 0.0000
02:36 20.7 6.3 39 270 0.8 1.7 1019.8 0.0000 0.0000
02:47 20.5 6.5 40 270 0.8 1.7 1019.8 0.0000 0.0000
02:57 20.1 6.5 41 270 1.1 1.9 1019.8 0.0000 0.0000
03:07 19.7 6.1 41 270 1.1 1.9 1019.7 0.0000 0.0000
03:17 19.6 6.4 42 270 1.1 2.8 1019.7 0.0000 0.0000
03:27 19.7 6.8 43 18 0.8 1.9 1019.6 0.0000 0.0000
03:37 19.9 6.3 41 270 0.8 1.9 1019.6 0.0000 0.0000
03:47 19.9 6.3 41 270 1.1 2.2 1019.4 0.0000 0.0000
03:58 19.9 6.3 41 259 1.1 2.2 1019.5 0.0000 0.0000
04:07 19.7 6.4 42 270 1.1 1.9 1019.6 0.0000 0.0000
04:17 19.4 6.5 43 270 0.8 1.9 1019.4 0.0000 0.0000
04:28 19.5 6.6 43 270 1.1 1.9 1019.6 0.0000 0.0000
04:38 19.4 6.5 43 260 1.1 1.9 1019.4 0.0000 0.0000
04:47 19.4 6.5 43 257 1.1 2.8 1019.3 0.0000 0.0000
04:57 19.3 6.4 43 270 0.8 1.9 1019.6 0.0000 0.0000
05:08 19.3 6.4 43 252 0.8 1.9 1019.5 0.0000 0.0000
05:18 19.2 6.7 44 261 1.1 2.5 1019.4 0.0000 0.0000
05:28 19.3 6.8 44 270 0.8 1.7 1019.5 0.0000 0.0000
05:38 19.2 6.7 44 270 1.1 2.5 1019.5 0.0000 0.0000
05:48 18.9 6.7 45 270 0.8 1.9 1019.8 0.0000 0.0000
05:58 19 6.8 45 259 0.8 1.9 1019.9 0.0000 0.0000
06:08 19.1 7.2 46 270 0.8 1.9 1019.9 0.0000 0.0000
06:18 19.2 7 45 257 1.1 2.2 1019.8 0.0000 0.0000
06:28 19.3 7.1 45 259 0.8 2.2 1020 0.0000 0.0000
06:38 19.4 7.2 45 270 0.8 1.9 1020 0.0000 0.0000
06:49 19.4 7.2 45 270 0.8 1.7 1020 0.0000 0.0000
06:59 19.5 7.6 46 270 0.8 2.2 1020 0.0000 0.0000
07:08 19.5 7.9 47 270 0.8 2.8 1020 0.0000 0.0000
07:18 19.5 7.9 47 270 0.8 1.7 1019.8 0.0000 0.0000
07:29 19.6 7.7 46 270 1.4 2.2 1019.8 0.0000 0.0000
07:39 20 8 46 270 1.1 2.5 1019.7 0.0000 0.0000
07:48 20.4 8.1 45 270 0.8 1.7 1019.6 0.0000 0.0000
07:59 21.1 7.3 41 270 1.1 2.2 1019.6 0.0000 0.0000
08:09 21.9 8.4 42 270 0.8 1.9 1019.5 0.0000 0.0000
08:19 22.8 8.5 40 255 0.8 3.6 1019.5 0.0000 0.0000
08:29 23.4 7.9 37 270 1.4 3.9 1019.6 0.0000 0.0000
08:39 23.9 8.3 37 258 1.4 3.3 1019.4 0.0000 0.0000
08:49 24.6 8.6 36 270 1.1 2.8 1019.3 0.0000 0.0000
08:59 24.9 8.8 36 270 0.8 1.9 1019.4 0.0000 0.0000
09:09 25 7.6 33 234 1.4 3.1 1019.1 0.0000 0.0000
09:19 25.3 8.8 35 270 1.1 2.2 1019.4 0.0000 0.0000
09:29 25.7 8.7 34 253 1.1 2.5 1019.1 0.0000 0.0000
09:39 25.9 8.4 33 236 1.1 3.1 1019 0.0000 0.0000
09:50 25.9 8.9 34 262 1.1 2.5 1019.1 0.0000 0.0000
09:59 26.1 9 34 254 1.1 3.1 1019.1 0.0000 0.0000
10:09 26.3 9.2 34 270 1.1 2.8 1019.2 0.0000 0.0000
10:20 26.6 8.6 32 233 1.1 3.9 1019.2 0.0000 0.0000
10:30 26.1 8.1 32 252 1.7 4.4 1019 0.0000 0.0000
10:40 26 8.5 33 240 1.7 4.4 1018.9 0.0000 0.0000
10:49 26.2 8.7 33 270 1.4 3.6 1018.9 0.0000 0.0000
11:00 26.6 9 33 229 1.7 5.6 1018.7 0.0000 0.0000
11:10 27 8.9 32 241 1.7 4.2 1018.7 0.0000 0.0000
11:20 27.1 8.5 31 233 1.4 3.1 1018.3 0.0000 0.0000
11:30 27.3 8.2 30 90 1.4 4.4 1018.4 0.0000 0.0000
11:40 27.2 8.1 30 257 1.4 3.3 1018.3 0.0000 0.0000
11:50 27.6 8.5 30 257 1.1 3.3 1018.3 0.0000 0.0000
12:00 27.7 8.6 30 254 1.4 3.1 1018.2 0.0000 0.0000
12:11 28.1 8.4 29 263 1.4 3.1 1018.3 0.0000 0.0000
12:20 28.2 9 30 253 1.4 4.7 1018.2 0.0000 0.0000
12:30 28.3 9.1 30 254 1.4 3.6 1018.2 0.0000 0.0000
12:41 28.3 8.6 29 247 1.4 5 1018 0.0000 0.0000
12:51 28 7.8 28 238 1.9 5 1017.9 0.0000 0.0000
13:00 28.2 9 30 219 1.9 5 1017.9 0.0000 0.0000
13:10 28.3 9.6 31 185 0.8 2.5 1017.9 0.0000 0.0000
13:21 28.4 9.7 31 198 1.4 2.8 1017.8 0.0000 0.0000
13:31 28.8 9.5 30 207 1.1 5 1017.5 0.0000 0.0000
13:41 28.6 9.3 30 194 1.4 3.9 1017.6 0.0000 0.0000
13:51 28.7 9.4 30 212 1.4 3.3 1017.6 0.0000 0.0000
14:01 28.6 9.8 31 212 1.4 4.2 1017.3 0.0000 0.0000
14:11 28.7 10.4 32 181 1.1 3.1 1017.2 0.0000 0.0000
14:21 28.5 8.8 29 243 1.4 3.3 1017.2 0.0000 0.0000
14:31 28.5 9.3 30 242 1.7 4.7 1017 0.0000 0.0000
14:41 28.4 10.1 32 248 1.1 3.3 1017 0.0000 0.0000
14:51 28.2 10 32 206 1.1 2.5 1017.1 0.0000 0.0000
15:02 27.7 9.5 32 257 1.4 4.7 1016.9 0.0000 0.0000
15:12 27.9 10.6 34 286 1.1 2.8 1016.9 0.0000 0.0000
15:21 28.1 10.3 33 235 1.9 5.6 1016.9 0.0000 0.0000
15:31 28.4 9.7 31 225 1.4 4.2 1016.7 0.0000 0.0000
15:42 28.4 10.1 32 218 1.4 4.2 1016.8 0.0000 0.0000
15:52 28.3 10.5 33 249 1.1 3.1 1016.6 0.0000 0.0000
16:01 28.2 10.4 33 245 1.4 3.6 1016.5 0.0000 0.0000
16:12 28.1 10.3 33 235 1.4 3.6 1016.4 0.0000 0.0000
16:22 28 10.2 33 221 1.1 3.6 1016.4 0.0000 0.0000
16:32 27.9 10.2 33 256 1.4 3.3 1016.4 0.0000 0.0000
16:42 27.9 10.2 33 239 1.7 5 1016.3 0.0000 0.0000
16:52 27.6 10.3 34 218 1.1 2.8 1016.3 0.0000 0.0000
17:02 27.9 10.2 33 254 1.1 2.5 1016.1 0.0000 0.0000
17:12 27.9 10.6 34 260 1.1 3.6 1016.1 0.0000 0.0000
17:23 27.7 10.4 34 243 1.4 3.6 1015.9 0.0000 0.0000
17:32 27.7 10.4 34 249 1.1 2.5 1015.8 0.0000 0.0000
17:42 27.5 10.3 34 239 1.1 3.6 1015.6 0.0000 0.0000
17:52 27.4 10.2 34 229 1.1 2.2 1015.7 0.0000 0.0000
18:03 27.3 10.5 35 226 1.1 2.8 1015.4 0.0000 0.0000
18:12 27 10.7 36 241 1.7 5.3 1015.5 0.0000 0.0000
18:22 26.5 9.8 35 221 1.7 4.4 1015.5 0.0000 0.0000
18:33 26.3 10.1 36 221 1.7 4.4 1015.6 0.0000 0.0000
18:43 26.2 10 36 201 1.1 4.7 1015.5 0.0000 0.0000
18:53 26.1 9.9 36 226 1.1 2.2 1015.6 0.0000 0.0000
19:02 25.6 9.8 37 240 1.1 3.3 1015.6 0.0000 0.0000
19:13 25.4 10.1 38 236 1.1 2.8 1015.5 0.0000 0.0000
19:23 25.3 9.6 37 210 1.1 3.3 1015.5 0.0000 0.0000
19:33 25 9.7 38 254 1.4 3.6 1015.4 0.0000 0.0000
19:43 24.6 9.4 38 256 1.7 3.9 1015.2 0.0000 0.0000
19:53 24.2 9.4 39 251 1.1 2.8 1015.4 0.0000 0.0000

DAY STATISTIC

2020-07-13
TEMPERATURE
AVERAGE
24.2
HIGH
28.8
13:31
LOW
18.9
05:48
PRESSURE
AVERAGE
1018.3
HIGH
1020.0
00:06
LOW
1015.2
19:43
DEWPOINT
AVERAGE
8.3
HIGH
10.7
18:12
LOW
6.1
02:27
HUMIDITY
AVERAGE
37
HIGH
47
07:08
LOW
28
12:51
WIND SPEED
AVERAGE
1.2
HIGH
1.9
12:51
WIND GUST
AVERAGE
3.1
HIGH
5.6
11:00
WIND DIRECTION
PREVAILING
W
63%
N
1.7
NE
0.0
E
0.8
SE
0.0
S
4.2
SW
30.3
W
63.0
NW
0.0
PRECIPITATION
RAIN HOUR
0.0
RAIN DAY
0.0
TEMPERATURE (°C)
LOW
18.9
HIGH
28.8
AVERAGE
24.2
PRESSURE (hpa)
LOW
1015.2
HIGH
1020.0
AVERAGE
1018.3
DEVICE